sensor_id;sensor_type;location;lat;lon;timestamp;P1;durP1;ratioP1;P2;durP2;ratioP2
27543;SDS011;17996;51.056;3.656;2022-12-07T00:01:11;9.63;;;5.15;;
27543;SDS011;17996;51.056;3.656;2022-12-07T00:03:39;18.40;;;5.33;;
27543;SDS011;17996;51.056;3.656;2022-12-07T00:06:06;10.95;;;5.03;;
27543;SDS011;17996;51.056;3.656;2022-12-07T00:08:33;15.20;;;6.57;;
27543;SDS011;17996;51.056;3.656;2022-12-07T00:11:00;16.15;;;5.78;;
27543;SDS011;17996;51.056;3.656;2022-12-07T00:13:31;19.65;;;6.25;;
27543;SDS011;17996;51.056;3.656;2022-12-07T00:18:31;17.80;;;5.47;;
27543;SDS011;17996;51.056;3.656;2022-12-07T00:21:00;19.05;;;5.68;;
27543;SDS011;17996;51.056;3.656;2022-12-07T00:23:29;15.52;;;5.35;;
27543;SDS011;17996;51.056;3.656;2022-12-07T00:25:55;18.02;;;4.75;;
27543;SDS011;17996;51.056;3.656;2022-12-07T00:28:27;9.35;;;5.00;;
27543;SDS011;17996;51.056;3.656;2022-12-07T00:30:59;13.30;;;4.68;;
27543;SDS011;17996;51.056;3.656;2022-12-07T00:33:35;14.32;;;6.03;;
27543;SDS011;17996;51.056;3.656;2022-12-07T00:36:02;15.27;;;6.32;;
27543;SDS011;17996;51.056;3.656;2022-12-07T00:41:01;17.40;;;6.85;;
27543;SDS011;17996;51.056;3.656;2022-12-07T00:43:28;21.77;;;6.50;;
27543;SDS011;17996;51.056;3.656;2022-12-07T00:45:54;16.52;;;6.07;;
27543;SDS011;17996;51.056;3.656;2022-12-07T00:48:21;15.38;;;5.60;;
27543;SDS011;17996;51.056;3.656;2022-12-07T00:50:47;16.38;;;5.90;;
27543;SDS011;17996;51.056;3.656;2022-12-07T00:53:14;17.83;;;5.75;;
27543;SDS011;17996;51.056;3.656;2022-12-07T00:55:40;14.27;;;6.22;;
27543;SDS011;17996;51.056;3.656;2022-12-07T00:58:06;13.10;;;6.40;;
27543;SDS011;17996;51.056;3.656;2022-12-07T01:00:32;11.68;;;6.72;;
27543;SDS011;17996;51.056;3.656;2022-12-07T01:02:58;13.63;;;6.78;;
27543;SDS011;17996;51.056;3.656;2022-12-07T01:05:24;16.67;;;6.30;;
27543;SDS011;17996;51.056;3.656;2022-12-07T01:07:50;13.70;;;6.15;;
27543;SDS011;17996;51.056;3.656;2022-12-07T01:10:15;21.80;;;8.23;;
27543;SDS011;17996;51.056;3.656;2022-12-07T01:12:41;16.38;;;6.95;;
27543;SDS011;17996;51.056;3.656;2022-12-07T01:15:07;15.80;;;7.50;;
27543;SDS011;17996;51.056;3.656;2022-12-07T01:17:33;23.92;;;8.60;;
27543;SDS011;17996;51.056;3.656;2022-12-07T01:19:59;16.95;;;7.50;;
27543;SDS011;17996;51.056;3.656;2022-12-07T01:22:25;16.65;;;7.88;;
27543;SDS011;17996;51.056;3.656;2022-12-07T01:24:51;11.90;;;8.10;;
27543;SDS011;17996;51.056;3.656;2022-12-07T01:27:16;15.93;;;8.82;;
27543;SDS011;17996;51.056;3.656;2022-12-07T01:29:42;17.30;;;8.73;;
27543;SDS011;17996;51.056;3.656;2022-12-07T01:32:08;18.88;;;8.85;;
27543;SDS011;17996;51.056;3.656;2022-12-07T01:34:33;18.42;;;9.07;;
27543;SDS011;17996;51.056;3.656;2022-12-07T01:36:59;21.02;;;9.25;;
27543;SDS011;17996;51.056;3.656;2022-12-07T01:39:25;24.73;;;9.15;;
27543;SDS011;17996;51.056;3.656;2022-12-07T01:41:52;19.98;;;10.05;;
27543;SDS011;17996;51.056;3.656;2022-12-07T01:44:19;18.30;;;8.75;;
27543;SDS011;17996;51.056;3.656;2022-12-07T01:46:59;17.70;;;9.82;;
27543;SDS011;17996;51.056;3.656;2022-12-07T01:49:45;20.98;;;10.05;;
27543;SDS011;17996;51.056;3.656;2022-12-07T01:52:15;16.63;;;9.07;;
27543;SDS011;17996;51.056;3.656;2022-12-07T01:54:43;13.75;;;8.63;;
27543;SDS011;17996;51.056;3.656;2022-12-07T01:57:10;15.43;;;8.47;;
27543;SDS011;17996;51.056;3.656;2022-12-07T01:59:38;15.80;;;8.52;;
27543;SDS011;17996;51.056;3.656;2022-12-07T02:02:06;13.65;;;8.32;;
27543;SDS011;17996;51.056;3.656;2022-12-07T02:04:39;15.63;;;9.07;;
27543;SDS011;17996;51.056;3.656;2022-12-07T02:07:05;13.13;;;8.15;;
27543;SDS011;17996;51.056;3.656;2022-12-07T02:09:31;17.27;;;9.70;;
27543;SDS011;17996;51.056;3.656;2022-12-07T02:11:57;16.90;;;8.48;;
27543;SDS011;17996;51.056;3.656;2022-12-07T02:14:22;16.50;;;7.93;;
27543;SDS011;17996;51.056;3.656;2022-12-07T02:16:54;17.23;;;8.93;;
27543;SDS011;17996;51.056;3.656;2022-12-07T02:25:17;13.10;;;8.38;;
27543;SDS011;17996;51.056;3.656;2022-12-07T02:28:07;12.45;;;7.88;;
27543;SDS011;17996;51.056;3.656;2022-12-07T02:30:48;21.92;;;9.43;;
27543;SDS011;17996;51.056;3.656;2022-12-07T02:33:22;14.52;;;8.25;;
27543;SDS011;17996;51.056;3.656;2022-12-07T02:41:09;21.40;;;9.45;;
27543;SDS011;17996;51.056;3.656;2022-12-07T02:43:47;19.63;;;9.75;;
27543;SDS011;17996;51.056;3.656;2022-12-07T02:46:21;15.60;;;8.80;;
27543;SDS011;17996;51.056;3.656;2022-12-07T02:48:52;15.85;;;8.23;;
27543;SDS011;17996;51.056;3.656;2022-12-07T02:51:20;14.57;;;8.00;;
27543;SDS011;17996;51.056;3.656;2022-12-07T02:53:47;18.20;;;7.05;;
27543;SDS011;17996;51.056;3.656;2022-12-07T03:10:42;13.73;;;5.43;;
27543;SDS011;17996;51.056;3.656;2022-12-07T03:15:55;11.63;;;5.15;;
27543;SDS011;17996;51.056;3.656;2022-12-07T03:18:29;12.05;;;5.18;;
27543;SDS011;17996;51.056;3.656;2022-12-07T03:21:01;13.57;;;5.25;;
27543;SDS011;17996;51.056;3.656;2022-12-07T03:23:29;15.82;;;5.05;;
27543;SDS011;17996;51.056;3.656;2022-12-07T03:25:58;11.20;;;4.93;;
27543;SDS011;17996;51.056;3.656;2022-12-07T03:28:26;13.85;;;5.43;;
27543;SDS011;17996;51.056;3.656;2022-12-07T03:31:31;11.63;;;5.20;;
27543;SDS011;17996;51.056;3.656;2022-12-07T03:36:57;20.77;;;5.45;;
27543;SDS011;17996;51.056;3.656;2022-12-07T03:39:34;13.45;;;5.50;;
27543;SDS011;17996;51.056;3.656;2022-12-07T03:42:10;16.25;;;5.55;;
27543;SDS011;17996;51.056;3.656;2022-12-07T03:44:36;16.20;;;5.65;;
27543;SDS011;17996;51.056;3.656;2022-12-07T03:52:56;17.50;;;5.35;;
27543;SDS011;17996;51.056;3.656;2022-12-07T03:55:30;12.52;;;5.10;;
27543;SDS011;17996;51.056;3.656;2022-12-07T03:58:07;11.57;;;5.28;;
27543;SDS011;17996;51.056;3.656;2022-12-07T04:00:36;16.83;;;5.78;;
27543;SDS011;17996;51.056;3.656;2022-12-07T04:03:02;13.50;;;4.75;;
27543;SDS011;17996;51.056;3.656;2022-12-07T04:05:28;15.15;;;5.43;;
27543;SDS011;17996;51.056;3.656;2022-12-07T04:07:53;19.77;;;5.65;;
27543;SDS011;17996;51.056;3.656;2022-12-07T04:10:19;15.77;;;5.03;;
27543;SDS011;17996;51.056;3.656;2022-12-07T04:12:45;24.45;;;5.70;;
27543;SDS011;17996;51.056;3.656;2022-12-07T04:15:11;10.13;;;5.30;;
27543;SDS011;17996;51.056;3.656;2022-12-07T04:17:37;20.70;;;5.68;;
27543;SDS011;17996;51.056;3.656;2022-12-07T04:20:04;11.95;;;5.40;;
27543;SDS011;17996;51.056;3.656;2022-12-07T04:22:30;14.38;;;5.53;;
27543;SDS011;17996;51.056;3.656;2022-12-07T04:24:56;16.08;;;5.18;;
27543;SDS011;17996;51.056;3.656;2022-12-07T04:27:22;14.43;;;5.57;;
27543;SDS011;17996;51.056;3.656;2022-12-07T04:29:47;13.40;;;5.88;;
27543;SDS011;17996;51.056;3.656;2022-12-07T04:32:13;14.85;;;5.28;;
27543;SDS011;17996;51.056;3.656;2022-12-07T04:34:38;16.20;;;5.05;;
27543;SDS011;17996;51.056;3.656;2022-12-07T04:37:04;11.32;;;4.65;;
27543;SDS011;17996;51.056;3.656;2022-12-07T04:39:31;15.43;;;4.82;;
27543;SDS011;17996;51.056;3.656;2022-12-07T04:41:58;13.00;;;5.13;;
27543;SDS011;17996;51.056;3.656;2022-12-07T04:44:25;25.88;;;4.78;;
27543;SDS011;17996;51.056;3.656;2022-12-07T04:46:52;15.05;;;4.40;;
27543;SDS011;17996;51.056;3.656;2022-12-07T04:49:18;15.65;;;4.20;;
27543;SDS011;17996;51.056;3.656;2022-12-07T04:51:44;12.02;;;4.38;;
27543;SDS011;17996;51.056;3.656;2022-12-07T04:54:11;21.58;;;4.88;;
27543;SDS011;17996;51.056;3.656;2022-12-07T04:56:38;15.70;;;3.72;;
27543;SDS011;17996;51.056;3.656;2022-12-07T04:59:04;11.40;;;4.45;;
27543;SDS011;17996;51.056;3.656;2022-12-07T05:01:30;18.70;;;4.07;;
27543;SDS011;17996;51.056;3.656;2022-12-07T05:03:56;14.15;;;4.05;;
27543;SDS011;17996;51.056;3.656;2022-12-07T05:06:21;9.20;;;3.67;;
27543;SDS011;17996;51.056;3.656;2022-12-07T05:08:47;22.80;;;3.85;;
27543;SDS011;17996;51.056;3.656;2022-12-07T05:11:13;14.95;;;4.38;;
27543;SDS011;17996;51.056;3.656;2022-12-07T05:13:58;15.38;;;4.85;;
27543;SDS011;17996;51.056;3.656;2022-12-07T05:16:24;14.10;;;5.25;;
27543;SDS011;17996;51.056;3.656;2022-12-07T05:18:49;12.43;;;4.25;;
27543;SDS011;17996;51.056;3.656;2022-12-07T05:21:15;11.73;;;4.30;;
27543;SDS011;17996;51.056;3.656;2022-12-07T05:23:40;17.75;;;4.70;;
27543;SDS011;17996;51.056;3.656;2022-12-07T05:26:06;20.17;;;5.07;;
27543;SDS011;17996;51.056;3.656;2022-12-07T05:28:32;16.42;;;5.22;;
27543;SDS011;17996;51.056;3.656;2022-12-07T05:30:57;10.82;;;5.00;;
27543;SDS011;17996;51.056;3.656;2022-12-07T05:33:23;16.13;;;4.53;;
27543;SDS011;17996;51.056;3.656;2022-12-07T05:35:49;12.88;;;5.05;;
27543;SDS011;17996;51.056;3.656;2022-12-07T05:38:14;14.80;;;4.70;;
27543;SDS011;17996;51.056;3.656;2022-12-07T05:40:40;17.70;;;5.07;;
27543;SDS011;17996;51.056;3.656;2022-12-07T05:43:05;12.20;;;4.72;;
27543;SDS011;17996;51.056;3.656;2022-12-07T05:45:31;10.30;;;5.28;;
27543;SDS011;17996;51.056;3.656;2022-12-07T05:47:57;22.77;;;5.55;;
27543;SDS011;17996;51.056;3.656;2022-12-07T05:50:22;17.02;;;5.03;;
27543;SDS011;17996;51.056;3.656;2022-12-07T05:52:48;10.93;;;4.45;;
27543;SDS011;17996;51.056;3.656;2022-12-07T05:55:14;11.45;;;4.82;;
27543;SDS011;17996;51.056;3.656;2022-12-07T05:57:39;7.97;;;4.47;;
27543;SDS011;17996;51.056;3.656;2022-12-07T06:00:25;15.43;;;5.03;;
27543;SDS011;17996;51.056;3.656;2022-12-07T06:02:50;15.40;;;6.55;;
27543;SDS011;17996;51.056;3.656;2022-12-07T06:05:16;17.77;;;5.25;;
27543;SDS011;17996;51.056;3.656;2022-12-07T06:07:42;21.60;;;5.63;;
27543;SDS011;17996;51.056;3.656;2022-12-07T06:10:07;20.65;;;5.78;;
27543;SDS011;17996;51.056;3.656;2022-12-07T06:12:33;20.75;;;7.28;;
27543;SDS011;17996;51.056;3.656;2022-12-07T06:14:59;20.05;;;7.15;;
27543;SDS011;17996;51.056;3.656;2022-12-07T06:17:24;17.88;;;7.25;;
27543;SDS011;17996;51.056;3.656;2022-12-07T06:19:50;16.42;;;7.65;;
27543;SDS011;17996;51.056;3.656;2022-12-07T06:22:16;12.32;;;6.80;;
27543;SDS011;17996;51.056;3.656;2022-12-07T06:24:42;17.90;;;7.13;;
27543;SDS011;17996;51.056;3.656;2022-12-07T06:27:09;21.77;;;7.30;;
27543;SDS011;17996;51.056;3.656;2022-12-07T06:29:35;21.63;;;7.00;;
27543;SDS011;17996;51.056;3.656;2022-12-07T06:32:01;16.75;;;6.53;;
27543;SDS011;17996;51.056;3.656;2022-12-07T06:34:28;16.67;;;6.38;;
27543;SDS011;17996;51.056;3.656;2022-12-07T06:36:53;14.18;;;7.32;;
27543;SDS011;17996;51.056;3.656;2022-12-07T06:39:24;12.82;;;6.43;;
27543;SDS011;17996;51.056;3.656;2022-12-07T06:41:51;18.95;;;6.97;;
27543;SDS011;17996;51.056;3.656;2022-12-07T06:44:17;19.88;;;6.78;;
27543;SDS011;17996;51.056;3.656;2022-12-07T06:46:43;14.23;;;6.43;;
27543;SDS011;17996;51.056;3.656;2022-12-07T06:49:09;21.38;;;6.35;;
27543;SDS011;17996;51.056;3.656;2022-12-07T06:51:35;17.55;;;5.68;;
27543;SDS011;17996;51.056;3.656;2022-12-07T06:54:04;17.35;;;6.10;;
27543;SDS011;17996;51.056;3.656;2022-12-07T06:56:30;14.13;;;6.32;;
27543;SDS011;17996;51.056;3.656;2022-12-07T06:58:55;18.42;;;7.25;;
27543;SDS011;17996;51.056;3.656;2022-12-07T07:01:21;25.90;;;6.78;;
27543;SDS011;17996;51.056;3.656;2022-12-07T07:03:47;20.35;;;7.03;;
27543;SDS011;17996;51.056;3.656;2022-12-07T07:06:13;18.48;;;6.40;;
27543;SDS011;17996;51.056;3.656;2022-12-07T07:08:39;18.48;;;6.30;;
27543;SDS011;17996;51.056;3.656;2022-12-07T07:11:06;13.85;;;6.00;;
27543;SDS011;17996;51.056;3.656;2022-12-07T07:13:32;14.02;;;5.05;;
27543;SDS011;17996;51.056;3.656;2022-12-07T07:15:59;14.20;;;6.05;;
27543;SDS011;17996;51.056;3.656;2022-12-07T07:18:25;14.20;;;4.93;;
27543;SDS011;17996;51.056;3.656;2022-12-07T07:20:52;10.40;;;5.82;;
27543;SDS011;17996;51.056;3.656;2022-12-07T07:23:18;14.77;;;5.63;;
27543;SDS011;17996;51.056;3.656;2022-12-07T07:25:44;18.45;;;5.53;;
27543;SDS011;17996;51.056;3.656;2022-12-07T07:28:10;23.52;;;5.72;;
27543;SDS011;17996;51.056;3.656;2022-12-07T07:30:36;20.00;;;4.20;;
27543;SDS011;17996;51.056;3.656;2022-12-07T07:33:01;9.43;;;3.97;;
27543;SDS011;17996;51.056;3.656;2022-12-07T07:35:29;9.13;;;3.97;;
27543;SDS011;17996;51.056;3.656;2022-12-07T07:37:56;11.18;;;3.75;;
27543;SDS011;17996;51.056;3.656;2022-12-07T07:40:22;17.02;;;4.13;;
27543;SDS011;17996;51.056;3.656;2022-12-07T07:42:48;15.90;;;4.47;;
27543;SDS011;17996;51.056;3.656;2022-12-07T07:45:14;12.27;;;4.50;;
27543;SDS011;17996;51.056;3.656;2022-12-07T07:47:40;12.90;;;4.80;;
27543;SDS011;17996;51.056;3.656;2022-12-07T07:50:06;11.70;;;4.75;;
27543;SDS011;17996;51.056;3.656;2022-12-07T07:52:32;10.10;;;4.40;;
27543;SDS011;17996;51.056;3.656;2022-12-07T07:54:57;10.30;;;4.65;;
27543;SDS011;17996;51.056;3.656;2022-12-07T07:57:23;13.40;;;3.88;;
27543;SDS011;17996;51.056;3.656;2022-12-07T07:59:49;11.95;;;4.32;;
27543;SDS011;17996;51.056;3.656;2022-12-07T08:02:16;16.05;;;4.50;;
27543;SDS011;17996;51.056;3.656;2022-12-07T08:04:43;12.43;;;4.93;;
27543;SDS011;17996;51.056;3.656;2022-12-07T08:07:09;9.73;;;3.83;;
27543;SDS011;17996;51.056;3.656;2022-12-07T08:09:35;15.25;;;5.13;;
27543;SDS011;17996;51.056;3.656;2022-12-07T08:12:01;16.10;;;4.50;;
27543;SDS011;17996;51.056;3.656;2022-12-07T08:14:27;11.32;;;4.03;;
27543;SDS011;17996;51.056;3.656;2022-12-07T08:16:53;15.30;;;4.57;;
27543;SDS011;17996;51.056;3.656;2022-12-07T08:19:19;17.38;;;4.28;;
27543;SDS011;17996;51.056;3.656;2022-12-07T08:21:45;20.38;;;5.22;;
27543;SDS011;17996;51.056;3.656;2022-12-07T08:24:11;15.57;;;5.28;;
27543;SDS011;17996;51.056;3.656;2022-12-07T08:26:37;15.82;;;5.30;;
27543;SDS011;17996;51.056;3.656;2022-12-07T08:29:02;15.95;;;5.75;;
27543;SDS011;17996;51.056;3.656;2022-12-07T08:31:28;20.17;;;5.88;;
27543;SDS011;17996;51.056;3.656;2022-12-07T08:33:54;15.52;;;5.53;;
27543;SDS011;17996;51.056;3.656;2022-12-07T08:36:20;18.13;;;6.78;;
27543;SDS011;17996;51.056;3.656;2022-12-07T08:38:47;21.38;;;6.47;;
27543;SDS011;17996;51.056;3.656;2022-12-07T08:41:13;17.92;;;7.15;;
27543;SDS011;17996;51.056;3.656;2022-12-07T08:43:39;14.75;;;5.40;;
27543;SDS011;17996;51.056;3.656;2022-12-07T08:48:31;19.45;;;5.18;;
27543;SDS011;17996;51.056;3.656;2022-12-07T08:51:00;15.80;;;5.07;;
27543;SDS011;17996;51.056;3.656;2022-12-07T08:53:27;18.40;;;5.15;;
27543;SDS011;17996;51.056;3.656;2022-12-07T08:55:53;23.75;;;5.53;;
27543;SDS011;17996;51.056;3.656;2022-12-07T08:58:20;18.80;;;5.65;;
27543;SDS011;17996;51.056;3.656;2022-12-07T09:00:46;13.60;;;5.20;;
27543;SDS011;17996;51.056;3.656;2022-12-07T09:03:11;21.35;;;6.20;;
27543;SDS011;17996;51.056;3.656;2022-12-07T09:05:37;27.08;;;5.95;;
27543;SDS011;17996;51.056;3.656;2022-12-07T09:08:03;23.27;;;5.35;;
27543;SDS011;17996;51.056;3.656;2022-12-07T09:10:29;22.92;;;5.15;;
27543;SDS011;17996;51.056;3.656;2022-12-07T09:12:55;12.75;;;4.55;;
27543;SDS011;17996;51.056;3.656;2022-12-07T09:15:20;20.02;;;4.68;;
27543;SDS011;17996;51.056;3.656;2022-12-07T09:17:46;26.30;;;5.28;;
27543;SDS011;17996;51.056;3.656;2022-12-07T09:20:12;15.93;;;4.60;;
27543;SDS011;17996;51.056;3.656;2022-12-07T09:22:38;20.42;;;4.63;;
27543;SDS011;17996;51.056;3.656;2022-12-07T09:25:04;13.93;;;4.80;;
27543;SDS011;17996;51.056;3.656;2022-12-07T09:27:30;22.50;;;5.32;;
27543;SDS011;17996;51.056;3.656;2022-12-07T09:29:56;19.27;;;4.47;;
27543;SDS011;17996;51.056;3.656;2022-12-07T09:32:21;19.63;;;5.72;;
27543;SDS011;17996;51.056;3.656;2022-12-07T09:34:47;16.75;;;4.78;;
27543;SDS011;17996;51.056;3.656;2022-12-07T09:37:13;17.42;;;4.47;;
27543;SDS011;17996;51.056;3.656;2022-12-07T09:39:39;13.77;;;4.40;;
27543;SDS011;17996;51.056;3.656;2022-12-07T09:42:05;23.13;;;4.30;;
27543;SDS011;17996;51.056;3.656;2022-12-07T09:44:32;16.52;;;4.55;;
27543;SDS011;17996;51.056;3.656;2022-12-07T09:46:59;14.43;;;4.22;;
27543;SDS011;17996;51.056;3.656;2022-12-07T09:49:25;14.38;;;4.90;;
27543;SDS011;17996;51.056;3.656;2022-12-07T09:54:53;18.17;;;4.57;;
27543;SDS011;17996;51.056;3.656;2022-12-07T09:57:37;16.15;;;4.60;;
27543;SDS011;17996;51.056;3.656;2022-12-07T10:00:06;15.45;;;5.72;;
27543;SDS011;17996;51.056;3.656;2022-12-07T10:02:41;15.43;;;5.35;;
27543;SDS011;17996;51.056;3.656;2022-12-07T10:05:20;16.77;;;4.82;;
27543;SDS011;17996;51.056;3.656;2022-12-07T10:07:53;22.02;;;6.13;;
27543;SDS011;17996;51.056;3.656;2022-12-07T10:10:23;22.15;;;6.25;;
27543;SDS011;17996;51.056;3.656;2022-12-07T10:13:06;19.00;;;7.63;;
27543;SDS011;17996;51.056;3.656;2022-12-07T10:15:48;18.05;;;6.57;;
27543;SDS011;17996;51.056;3.656;2022-12-07T10:18:41;21.58;;;6.95;;
27543;SDS011;17996;51.056;3.656;2022-12-07T10:21:19;21.08;;;6.53;;
27543;SDS011;17996;51.056;3.656;2022-12-07T10:28:59;21.08;;;6.15;;
27543;SDS011;17996;51.056;3.656;2022-12-07T10:31:29;27.20;;;5.78;;
27543;SDS011;17996;51.056;3.656;2022-12-07T10:33:59;19.60;;;6.10;;
27543;SDS011;17996;51.056;3.656;2022-12-07T10:36:36;15.82;;;5.55;;
27543;SDS011;17996;51.056;3.656;2022-12-07T10:39:10;22.73;;;5.45;;
27543;SDS011;17996;51.056;3.656;2022-12-07T10:44:29;21.60;;;6.18;;
27543;SDS011;17996;51.056;3.656;2022-12-07T11:06:20;18.58;;;4.35;;
27543;SDS011;17996;51.056;3.656;2022-12-07T11:08:45;14.57;;;4.75;;
27543;SDS011;17996;51.056;3.656;2022-12-07T11:11:42;8.48;;;3.90;;
27543;SDS011;17996;51.056;3.656;2022-12-07T11:19:40;13.18;;;5.05;;
27543;SDS011;17996;51.056;3.656;2022-12-07T11:24:59;16.15;;;6.32;;
27543;SDS011;17996;51.056;3.656;2022-12-07T11:31:09;16.35;;;5.57;;
27543;SDS011;17996;51.056;3.656;2022-12-07T11:33:32;15.70;;;4.70;;
27543;SDS011;17996;51.056;3.656;2022-12-07T11:41:15;9.57;;;3.65;;
27543;SDS011;17996;51.056;3.656;2022-12-07T11:55:01;8.63;;;2.88;;
27543;SDS011;17996;51.056;3.656;2022-12-07T11:57:36;11.88;;;2.92;;
27543;SDS011;17996;51.056;3.656;2022-12-07T12:00:12;10.57;;;2.25;;
27543;SDS011;17996;51.056;3.656;2022-12-07T12:05:23;18.05;;;2.53;;
27543;SDS011;17996;51.056;3.656;2022-12-07T12:07:59;10.07;;;2.35;;
27543;SDS011;17996;51.056;3.656;2022-12-07T12:21:55;13.43;;;3.75;;
27543;SDS011;17996;51.056;3.656;2022-12-07T12:24:31;8.85;;;3.97;;
27543;SDS011;17996;51.056;3.656;2022-12-07T12:27:03;15.98;;;4.32;;
27543;SDS011;17996;51.056;3.656;2022-12-07T12:29:35;18.20;;;4.75;;
27543;SDS011;17996;51.056;3.656;2022-12-07T12:42:49;14.70;;;5.47;;
27543;SDS011;17996;51.056;3.656;2022-12-07T12:52:58;22.92;;;5.90;;
27543;SDS011;17996;51.056;3.656;2022-12-07T12:58:29;16.27;;;5.43;;
27543;SDS011;17996;51.056;3.656;2022-12-07T13:04:00;16.73;;;4.47;;
27543;SDS011;17996;51.056;3.656;2022-12-07T13:08:54;18.00;;;7.15;;
27543;SDS011;17996;51.056;3.656;2022-12-07T13:11:37;22.55;;;6.93;;
27543;SDS011;17996;51.056;3.656;2022-12-07T13:17:05;18.13;;;4.10;;
27543;SDS011;17996;51.056;3.656;2022-12-07T13:24:56;12.65;;;4.25;;
27543;SDS011;17996;51.056;3.656;2022-12-07T13:27:25;18.02;;;4.43;;
27543;SDS011;17996;51.056;3.656;2022-12-07T13:29:51;14.43;;;4.25;;
27543;SDS011;17996;51.056;3.656;2022-12-07T13:32:28;6.80;;;3.10;;
27543;SDS011;17996;51.056;3.656;2022-12-07T13:34:54;9.90;;;3.20;;
27543;SDS011;17996;51.056;3.656;2022-12-07T13:37:23;10.18;;;4.45;;
27543;SDS011;17996;51.056;3.656;2022-12-07T13:39:56;13.80;;;3.63;;
27543;SDS011;17996;51.056;3.656;2022-12-07T13:42:26;7.95;;;3.30;;
27543;SDS011;17996;51.056;3.656;2022-12-07T13:44:56;9.93;;;3.38;;
27543;SDS011;17996;51.056;3.656;2022-12-07T13:50:01;10.02;;;4.10;;
27543;SDS011;17996;51.056;3.656;2022-12-07T13:52:28;7.18;;;3.20;;
27543;SDS011;17996;51.056;3.656;2022-12-07T13:55:11;10.45;;;2.55;;
27543;SDS011;17996;51.056;3.656;2022-12-07T13:57:40;8.98;;;2.20;;
27543;SDS011;17996;51.056;3.656;2022-12-07T14:00:14;5.60;;;2.10;;
27543;SDS011;17996;51.056;3.656;2022-12-07T14:02:54;4.93;;;1.30;;
27543;SDS011;17996;51.056;3.656;2022-12-07T14:05:52;5.80;;;1.50;;
27543;SDS011;17996;51.056;3.656;2022-12-07T14:08:36;7.53;;;1.40;;
27543;SDS011;17996;51.056;3.656;2022-12-07T14:11:02;4.80;;;1.10;;
27543;SDS011;17996;51.056;3.656;2022-12-07T14:13:32;5.28;;;1.35;;
27543;SDS011;17996;51.056;3.656;2022-12-07T14:16:03;3.92;;;1.08;;
27543;SDS011;17996;51.056;3.656;2022-12-07T14:18:41;9.00;;;1.30;;
27543;SDS011;17996;51.056;3.656;2022-12-07T14:21:14;7.75;;;2.33;;
27543;SDS011;17996;51.056;3.656;2022-12-07T14:23:43;3.50;;;1.60;;
27543;SDS011;17996;51.056;3.656;2022-12-07T14:26:12;8.90;;;1.42;;
27543;SDS011;17996;51.056;3.656;2022-12-07T14:28:40;8.98;;;1.70;;
27543;SDS011;17996;51.056;3.656;2022-12-07T14:31:14;4.28;;;1.17;;
27543;SDS011;17996;51.056;3.656;2022-12-07T14:33:42;10.05;;;2.20;;
27543;SDS011;17996;51.056;3.656;2022-12-07T14:36:11;7.47;;;1.65;;
27543;SDS011;17996;51.056;3.656;2022-12-07T14:38:38;7.07;;;2.10;;
27543;SDS011;17996;51.056;3.656;2022-12-07T14:41:14;13.10;;;2.20;;
27543;SDS011;17996;51.056;3.656;2022-12-07T14:44:01;7.07;;;2.78;;
27543;SDS011;17996;51.056;3.656;2022-12-07T14:46:27;13.43;;;6.05;;
27543;SDS011;17996;51.056;3.656;2022-12-07T14:48:53;12.35;;;4.18;;
27543;SDS011;17996;51.056;3.656;2022-12-07T14:51:18;11.23;;;3.67;;
27543;SDS011;17996;51.056;3.656;2022-12-07T14:53:45;6.45;;;2.78;;
27543;SDS011;17996;51.056;3.656;2022-12-07T14:56:13;16.10;;;2.70;;
27543;SDS011;17996;51.056;3.656;2022-12-07T14:58:39;10.95;;;2.70;;
27543;SDS011;17996;51.056;3.656;2022-12-07T15:01:05;8.00;;;1.92;;
27543;SDS011;17996;51.056;3.656;2022-12-07T15:03:31;10.65;;;2.40;;
27543;SDS011;17996;51.056;3.656;2022-12-07T15:05:57;8.55;;;2.80;;
27543;SDS011;17996;51.056;3.656;2022-12-07T15:08:22;7.90;;;2.47;;
27543;SDS011;17996;51.056;3.656;2022-12-07T15:10:48;9.23;;;2.75;;
27543;SDS011;17996;51.056;3.656;2022-12-07T15:13:14;12.68;;;2.45;;
27543;SDS011;17996;51.056;3.656;2022-12-07T15:15:59;8.38;;;3.28;;
27543;SDS011;17996;51.056;3.656;2022-12-07T15:18:25;8.10;;;2.90;;
27543;SDS011;17996;51.056;3.656;2022-12-07T15:20:50;6.07;;;2.80;;
27543;SDS011;17996;51.056;3.656;2022-12-07T15:23:16;10.23;;;3.13;;
27543;SDS011;17996;51.056;3.656;2022-12-07T15:25:46;9.00;;;3.38;;
27543;SDS011;17996;51.056;3.656;2022-12-07T15:28:13;7.93;;;3.88;;
27543;SDS011;17996;51.056;3.656;2022-12-07T15:30:40;9.77;;;4.50;;
27543;SDS011;17996;51.056;3.656;2022-12-07T15:33:07;11.52;;;5.63;;
27543;SDS011;17996;51.056;3.656;2022-12-07T15:35:33;11.50;;;5.95;;
27543;SDS011;17996;51.056;3.656;2022-12-07T15:38:02;10.20;;;4.90;;
27543;SDS011;17996;51.056;3.656;2022-12-07T15:40:28;9.02;;;5.20;;
27543;SDS011;17996;51.056;3.656;2022-12-07T15:42:54;14.27;;;4.65;;
27543;SDS011;17996;51.056;3.656;2022-12-07T15:45:20;10.45;;;4.70;;
27543;SDS011;17996;51.056;3.656;2022-12-07T15:47:45;13.60;;;4.50;;
27543;SDS011;17996;51.056;3.656;2022-12-07T15:50:12;16.90;;;5.00;;
27543;SDS011;17996;51.056;3.656;2022-12-07T15:52:40;11.00;;;4.95;;
27543;SDS011;17996;51.056;3.656;2022-12-07T15:55:06;11.60;;;4.50;;
27543;SDS011;17996;51.056;3.656;2022-12-07T15:57:33;16.02;;;5.82;;
27543;SDS011;17996;51.056;3.656;2022-12-07T16:00:00;23.58;;;4.82;;
27543;SDS011;17996;51.056;3.656;2022-12-07T16:02:26;11.13;;;4.72;;
27543;SDS011;17996;51.056;3.656;2022-12-07T16:04:51;10.68;;;4.40;;
27543;SDS011;17996;51.056;3.656;2022-12-07T16:07:18;12.52;;;5.13;;
27543;SDS011;17996;51.056;3.656;2022-12-07T16:09:44;12.57;;;5.55;;
27543;SDS011;17996;51.056;3.656;2022-12-07T16:12:11;22.65;;;7.15;;
27543;SDS011;17996;51.056;3.656;2022-12-07T16:14:38;15.32;;;8.18;;
27543;SDS011;17996;51.056;3.656;2022-12-07T16:17:05;25.70;;;12.70;;
27543;SDS011;17996;51.056;3.656;2022-12-07T16:19:31;30.35;;;16.15;;
27543;SDS011;17996;51.056;3.656;2022-12-07T16:21:57;27.02;;;13.70;;
27543;SDS011;17996;51.056;3.656;2022-12-07T16:24:24;24.80;;;13.73;;
27543;SDS011;17996;51.056;3.656;2022-12-07T16:26:50;22.35;;;11.20;;
27543;SDS011;17996;51.056;3.656;2022-12-07T16:29:17;23.98;;;10.93;;
27543;SDS011;17996;51.056;3.656;2022-12-07T16:31:44;23.83;;;9.75;;
27543;SDS011;17996;51.056;3.656;2022-12-07T16:34:10;15.48;;;9.35;;
27543;SDS011;17996;51.056;3.656;2022-12-07T16:36:36;19.48;;;8.93;;
27543;SDS011;17996;51.056;3.656;2022-12-07T16:39:02;18.70;;;8.38;;
27543;SDS011;17996;51.056;3.656;2022-12-07T16:41:28;13.35;;;7.57;;
27543;SDS011;17996;51.056;3.656;2022-12-07T16:43:54;25.23;;;8.32;;
27543;SDS011;17996;51.056;3.656;2022-12-07T16:46:20;21.60;;;8.73;;
27543;SDS011;17996;51.056;3.656;2022-12-07T16:48:46;20.48;;;10.48;;
27543;SDS011;17996;51.056;3.656;2022-12-07T16:51:12;19.02;;;11.05;;
27543;SDS011;17996;51.056;3.656;2022-12-07T16:53:39;17.80;;;9.35;;
27543;SDS011;17996;51.056;3.656;2022-12-07T16:56:13;16.63;;;9.98;;
27543;SDS011;17996;51.056;3.656;2022-12-07T16:58:41;23.23;;;7.82;;
27543;SDS011;17996;51.056;3.656;2022-12-07T17:01:25;23.73;;;9.90;;
27543;SDS011;17996;51.056;3.656;2022-12-07T17:03:53;17.80;;;7.90;;
27543;SDS011;17996;51.056;3.656;2022-12-07T17:06:22;24.70;;;11.45;;
27543;SDS011;17996;51.056;3.656;2022-12-07T17:08:50;22.02;;;11.50;;
27543;SDS011;17996;51.056;3.656;2022-12-07T17:11:24;41.78;;;22.38;;
27543;SDS011;17996;51.056;3.656;2022-12-07T17:13:56;38.55;;;21.73;;
27543;SDS011;17996;51.056;3.656;2022-12-07T17:16:40;56.92;;;30.38;;
27543;SDS011;17996;51.056;3.656;2022-12-07T17:19:07;22.95;;;10.43;;